Time;durP1;ratioP1;P1;durP2;ratioP2;P2;SDS_P1;SDS_P2;PMS_P1;PMS_P2;Temp;Humidity;BMP_temperature;BMP_pressure;BME280_temperature;BME280_humidity;BME280_pressure;Samples;Min_cycle;Max_cycle;Signal;HPM_P1;HPM_P2
2023/06/13 00:03:42;;;;;;;3.8;1.9;;;;;;;7.3;83.8;98860;;;;
2023/06/13 00:14:43;;;;;;;3.8;1.9;;;;;;;7.1;82.8;98850;;;;
2023/06/13 00:24:42;;;;;;;4.9;2.2;;;;;;;7;83.2;98850;;;;
2023/06/13 00:35:42;;;;;;;4.9;2.2;;;;;;;6.9;84.6;98840;;;;
2023/06/13 00:45:42;;;;;;;4.9;2.2;;;;;;;6.9;84.9;98840;;;;
2023/06/13 00:56:44;;;;;;;4.8;2.3;;;;;;;6.9;85.6;98840;;;;
2023/06/13 01:06:45;;;;;;;4.8;2.3;;;;;;;6.9;86;98830;;;;
2023/06/13 01:17:43;;;;;;;7;3.9;;;;;;;6.9;86;98820;;;;
2023/06/13 01:28:42;;;;;;;7;3.9;;;;;;;6.9;86;98820;;;;
2023/06/13 01:38:42;;;;;;;7;3.9;;;;;;;6.8;86;98820;;;;
2023/06/13 01:49:42;;;;;;;6.3;3.5;;;;;;;6.8;86.3;98820;;;;
2023/06/13 01:59:42;;;;;;;6.3;3.5;;;;;;;6.7;86.3;98810;;;;
2023/06/13 02:09:42;;;;;;;6.3;3.5;;;;;;;6.8;88;98810;;;;
2023/06/13 02:19:42;;;;;;;12.9;2.9;;;;;;;6.8;88;98810;;;;
2023/06/13 02:29:44;;;;;;;12.9;2.9;;;;;;;6.7;87.2;98800;;;;
2023/06/13 02:40:42;;;;;;;12.9;2.9;;;;;;;6.6;86.4;98800;;;;
2023/06/13 02:50:42;;;;;;;5.8;3.4;;;;;;;6.5;86.2;98810;;;;
2023/06/13 03:00:42;;;;;;;5.8;3.4;;;;;;;6.5;86.6;98810;;;;
2023/06/13 03:11:42;;;;;;;5.8;3.4;;;;;;;6.5;86.7;98820;;;;
2023/06/13 03:21:42;;;;;;;7.5;3.3;;;;;;;6.6;86.6;98810;;;;
2023/06/13 03:32:42;;;;;;;7.5;3.3;;;;;;;6.8;88.8;98800;;;;
2023/06/13 03:43:43;;;;;;;7.5;3.3;;;;;;;7.2;88.2;98810;;;;
2023/06/13 03:54:42;;;;;;;8.1;3.5;;;;;;;7.5;87.6;98810;;;;
2023/06/13 04:04:44;;;;;;;8.1;3.5;;;;;;;7.8;87.2;98800;;;;
2023/06/13 04:15:42;;;;;;;6.9;3.4;;;;;;;8.2;86.1;98800;;;;
2023/06/13 04:26:45;;;;;;;6.9;3.4;;;;;;;8.4;85;98800;;;;
2023/06/13 04:36:44;;;;;;;6.9;3.4;;;;;;;8.8;84.6;98800;;;;
2023/06/13 04:46:43;;;;;;;9.8;4.7;;;;;;;9.1;83.7;98790;;;;
2023/06/13 04:57:43;;;;;;;9.8;4.7;;;;;;;9.6;82;98790;;;;
2023/06/13 05:07:42;;;;;;;9.8;4.7;;;;;;;9.9;81.4;98790;;;;
2023/06/13 05:17:45;;;;;;;7.3;3.8;;;;;;;10.3;79.6;98780;;;;
2023/06/13 05:28:42;;;;;;;7.3;3.8;;;;;;;10.5;80;98790;;;;
2023/06/13 05:38:42;;;;;;;7.3;3.8;;;;;;;10.9;77.6;98790;;;;
2023/06/13 05:49:42;;;;;;;7.8;5;;;;;;;11.5;76.7;98790;;;;
2023/06/13 05:59:42;;;;;;;7.8;5;;;;;;;11.8;75.3;98780;;;;
2023/06/13 06:10:42;;;;;;;7.8;5;;;;;;;11.9;74.2;98780;;;;
2023/06/13 06:21:42;;;;;;;8.9;5.2;;;;;;;12.3;73.3;98770;;;;
2023/06/13 06:31:42;;;;;;;8.9;5.2;;;;;;;12.6;71.8;98770;;;;
2023/06/13 06:42:43;;;;;;;8.9;5.2;;;;;;;12.9;70;98770;;;;
2023/06/13 06:53:44;;;;;;;8.1;4.2;;;;;;;13.3;68.8;98770;;;;
2023/06/13 07:03:42;;;;;;;8.1;4.2;;;;;;;13.7;65.8;98770;;;;
2023/06/13 07:13:42;;;;;;;8.1;4.2;;;;;;;14;63.3;98770;;;;
2023/06/13 07:23:42;;;;;;;7.2;2.8;;;;;;;14.3;62.4;98750;;;;
2023/06/13 07:33:42;;;;;;;7.2;2.8;;;;;;;14.8;60.9;98750;;;;
2023/06/13 07:44:42;;;;;;;7.2;2.8;;;;;;;14.9;59.3;98760;;;;
2023/06/13 07:54:43;;;;;;;7;2.8;;;;;;;14.8;59.8;98750;;;;
2023/06/13 08:04:43;;;;;;;7;2.8;;;;;;;15.3;57.1;98740;;;;
2023/06/13 08:15:43;;;;;;;4.5;2;;;;;;;15.9;55.9;98750;;;;
2023/06/13 08:26:44;;;;;;;4.5;2;;;;;;;15.5;56.6;98760;;;;
2023/06/13 08:36:43;;;;;;;4.5;2;;;;;;;15.9;56.4;98750;;;;
2023/06/13 08:46:43;;;;;;;3.6;1.7;;;;;;;15.7;56.1;98750;;;;
2023/06/13 08:56:42;;;;;;;3.6;1.7;;;;;;;15.7;54.6;98750;;;;
2023/06/13 09:06:43;;;;;;;3.6;1.7;;;;;;;16.1;54.4;98760;;;;
2023/06/13 09:17:43;;;;;;;4.9;1.7;;;;;;;16.5;52.8;98760;;;;
2023/06/13 09:28:43;;;;;;;4.9;1.7;;;;;;;17;55.1;98750;;;;
2023/06/13 09:38:43;;;;;;;4.9;1.7;;;;;;;17;54.1;98740;;;;
2023/06/13 09:49:43;;;;;;;2.9;1.5;;;;;;;17.3;51;98750;;;;
2023/06/13 10:00:43;;;;;;;2.9;1.5;;;;;;;17.1;53.4;98740;;;;
2023/06/13 10:10:43;;;;;;;2.9;1.5;;;;;;;17;52.4;98740;;;;
2023/06/13 10:20:43;;;;;;;5.9;1.4;;;;;;;17;54.7;98720;;;;
2023/06/13 10:30:43;;;;;;;5.9;1.4;;;;;;;17.1;50.8;98720;;;;
2023/06/13 10:40:43;;;;;;;5.9;1.4;;;;;;;17.1;50.8;98710;;;;
2023/06/13 10:51:43;;;;;;;2.9;1.3;;;;;;;17.2;51.2;98710;;;;
2023/06/13 11:01:43;;;;;;;2.9;1.3;;;;;;;18.1;48.9;98690;;;;
2023/06/13 11:11:43;;;;;;;2.9;1.3;;;;;;;17.9;49.1;98690;;;;
2023/06/13 11:22:43;;;;;;;3.8;1.9;;;;;;;18;47.2;98690;;;;
2023/06/13 11:33:43;;;;;;;3.8;1.9;;;;;;;18.3;47.5;98700;;;;
2023/06/13 11:43:43;;;;;;;3.8;1.9;;;;;;;18.4;48.1;98690;;;;
2023/06/13 11:54:47;;;;;;;4.2;1.9;;;;;;;18.5;47.4;98690;;;;
2023/06/13 12:04:43;;;;;;;4.2;1.9;;;;;;;18.3;48.2;98680;;;;
2023/06/13 12:15:43;;;;;;;4.9;1.6;;;;;;;18.9;46.6;98680;;;;
2023/06/13 12:25:43;;;;;;;4.9;1.6;;;;;;;18.5;46.5;98680;;;;
2023/06/13 12:35:43;;;;;;;4.9;1.6;;;;;;;18.7;45.7;98670;;;;
2023/06/13 12:46:43;;;;;;;4.3;1.7;;;;;;;18;47.6;98670;;;;
2023/06/13 12:56:43;;;;;;;4.3;1.7;;;;;;;18.8;45.1;98680;;;;
2023/06/13 13:06:43;;;;;;;4.3;1.7;;;;;;;19.4;43.7;98660;;;;
2023/06/13 13:17:43;;;;;;;4.3;1.9;;;;;;;18.6;48.6;98640;;;;
2023/06/13 13:28:43;;;;;;;4.3;1.9;;;;;;;19.2;46.5;98640;;;;
2023/06/13 13:39:43;;;;;;;4.3;1.9;;;;;;;19.3;45.3;98650;;;;
2023/06/13 13:49:43;;;;;;;3.7;1.6;;;;;;;18.6;47.5;98640;;;;
2023/06/13 14:00:43;;;;;;;3.7;1.6;;;;;;;17.9;46.5;98640;;;;
2023/06/13 14:10:43;;;;;;;3.7;1.6;;;;;;;18.2;47.6;98650;;;;
2023/06/13 14:21:43;;;;;;;4.4;1.5;;;;;;;18.9;46.7;98650;;;;
2023/06/13 14:31:43;;;;;;;4.4;1.5;;;;;;;18.8;46.6;98640;;;;
2023/06/13 14:41:43;;;;;;;4.4;1.5;;;;;;;19.1;47.3;98640;;;;
2023/06/13 14:51:43;;;;;;;3.4;1.7;;;;;;;19.9;45.6;98630;;;;
2023/06/13 15:01:43;;;;;;;3.4;1.7;;;;;;;18.3;46.2;98630;;;;
2023/06/13 15:11:43;;;;;;;3.4;1.7;;;;;;;19.3;49.1;98630;;;;
2023/06/13 15:22:43;;;;;;;4.5;1.9;;;;;;;18.4;49.2;98630;;;;
2023/06/13 15:32:43;;;;;;;4.5;1.9;;;;;;;22.6;40.2;98620;;;;
2023/06/13 15:42:43;;;;;;;4.5;1.9;;;;;;;20;45;98620;;;;
2023/06/13 15:52:43;;;;;;;3.7;1.3;;;;;;;17.6;52;98630;;;;
2023/06/13 16:02:44;;;;;;;3.7;1.3;;;;;;;17.2;53;98630;;;;
2023/06/13 16:13:43;;;;;;;3.7;1.3;;;;;;;16.7;53.7;98640;;;;
2023/06/13 16:24:43;;;;;;;3.2;1.4;;;;;;;17.1;53.8;98650;;;;
2023/06/13 16:34:43;;;;;;;3.2;1.4;;;;;;;21.5;44;98640;;;;
2023/06/13 16:44:43;;;;;;;3.2;1.4;;;;;;;23.5;39;98620;;;;
2023/06/13 16:54:43;;;;;;;3.8;1.5;;;;;;;20.1;45;98630;;;;
2023/06/13 17:05:43;;;;;;;3.8;1.5;;;;;;;20.6;44.8;98630;;;;
2023/06/13 17:16:43;;;;;;;2.9;1.4;;;;;;;16.8;55.1;98640;;;;
2023/06/13 17:26:43;;;;;;;2.9;1.4;;;;;;;16;56.9;98640;;;;
2023/06/13 17:37:43;;;;;;;2.9;1.4;;;;;;;18.9;49.4;98640;;;;
2023/06/13 17:48:43;;;;;;;2.6;1.4;;;;;;;20.5;46.4;98630;;;;
2023/06/13 17:58:43;;;;;;;2.6;1.4;;;;;;;20.6;45.8;98630;;;;
2023/06/13 18:08:43;;;;;;;;;;;;;;;;;;;;;
2023/06/13 18:18:44;;;;;;;;;;;;;;;;;;;;;
2023/06/13 18:28:43;;;;;;;;;;;;;;;;;;;;;
2023/06/13 18:39:43;;;;;;;;;;;;;;;;;;;;;
2023/06/13 18:49:43;;;;;;;;;;;;;;;;;;;;;
2023/06/13 18:59:43;;;;;;;;;;;;;;;;;;;;;
2023/06/13 19:09:43;;;;;;;;;;;;;;;;;;;;;
2023/06/13 19:19:43;;;;;;;;;;;;;;;;;;;;;
2023/06/13 19:30:43;;;;;;;;;;;;;;;;;;;;;
2023/06/13 19:41:46;;;;;;;;;;;;;;;;;;;;;
2023/06/13 19:51:44;;;;;;;;;;;;;;;;;;;;;
2023/06/13 20:02:44;;;;;;;;;;;;;;;;;;;;;
2023/06/13 20:12:43;;;;;;;;;;;;;;;;;;;;;
2023/06/13 20:22:45;;;;;;;;;;;;;;;;;;;;;
2023/06/13 20:32:43;;;;;;;;;;;;;;;;;;;;;
2023/06/13 20:42:45;;;;;;;;;;;;;;;;;;;;;
2023/06/13 20:52:43;;;;;;;;;;;;;;;;;;;;;
2023/06/13 21:03:43;;;;;;;;;;;;;;;;;;;;;
2023/06/13 21:13:43;;;;;;;;;;;;;;;;;;;;;
2023/06/13 21:24:43;;;;;;;;;;;;;;;;;;;;;
2023/06/13 21:34:43;;;;;;;;;;;;;;;;;;;;;
2023/06/13 21:45:43;;;;;;;;;;;;;;;;;;;;;
2023/06/13 21:55:43;;;;;;;;;;;;;;;;;;;;;
2023/06/13 22:06:44;;;;;;;;;;;;;;;;;;;;;
2023/06/13 22:17:43;;;;;;;18.1;8.7;;;;;;;;;;;;;
2023/06/13 22:27:44;;;;;;;18.1;8.7;;;;;;;;;;;;;
2023/06/13 22:37:43;;;;;;;18.1;8.7;;;;;;;;;;;;;
2023/06/13 22:48:44;;;;;;;13;6.9;;;;;;;;;;;;;
2023/06/13 22:58:43;;;;;;;13;6.9;;;;;;;;;;;;;
2023/06/13 23:08:43;;;;;;;13;6.9;;;;;;;;;;;;;
2023/06/13 23:18:43;;;;;;;12.3;6.8;;;;;;;;;;;;;
2023/06/13 23:28:43;;;;;;;12.3;6.8;;;;;;;;;;;;;
2023/06/13 23:38:43;;;;;;;12.3;6.8;;;;;;;;;;;;;
2023/06/13 23:48:43;;;;;;;11.7;6.1;;;;;;;;;;;;;
2023/06/13 23:59:43;;;;;;;11.7;6.1;;;;;;;;;;;;;
